createdAt,value
2023-03-13T00:02:16.090Z,10.30
2023-03-13T00:04:45.210Z,10.33
2023-03-13T00:07:14.529Z,10.31
2023-03-13T00:09:43.812Z,10.18
2023-03-13T00:12:13.001Z,10.03
2023-03-13T00:14:42.504Z,9.84
2023-03-13T00:17:11.929Z,9.74
2023-03-13T00:19:40.926Z,9.68
2023-03-13T00:22:09.889Z,9.67
2023-03-13T00:24:39.072Z,9.73
2023-03-13T00:27:07.925Z,9.76
2023-03-13T00:29:37.115Z,9.81
2023-03-13T00:32:06.730Z,9.84
2023-03-13T00:34:35.865Z,9.87
2023-03-13T00:37:05.207Z,9.91
2023-03-13T00:39:34.425Z,9.88
2023-03-13T00:42:04.426Z,9.90
2023-03-13T00:44:33.140Z,9.86
2023-03-13T00:47:02.539Z,9.87
2023-03-13T00:49:31.180Z,9.95
2023-03-13T00:52:00.070Z,10.04
2023-03-13T00:54:29.226Z,10.13
2023-03-13T00:56:58.122Z,10.15
2023-03-13T00:59:26.883Z,10.13
2023-03-13T01:01:55.691Z,10.14
2023-03-13T01:04:24.722Z,10.12
2023-03-13T01:06:53.597Z,10.08
2023-03-13T01:09:22.396Z,10.07
2023-03-13T01:11:51.417Z,10.03
2023-03-13T01:14:20.943Z,9.99
2023-03-13T01:16:49.724Z,10.00
2023-03-13T01:19:19.948Z,10.04
2023-03-13T01:21:48.741Z,10.04
2023-03-13T01:24:19.695Z,10.01
2023-03-13T01:26:48.522Z,9.89
2023-03-13T01:29:17.516Z,9.86
2023-03-13T01:31:46.345Z,9.78
2023-03-13T01:34:15.151Z,9.70
2023-03-13T01:36:44.424Z,9.62
2023-03-13T01:39:13.267Z,9.54
2023-03-13T01:41:42.063Z,9.51
2023-03-13T01:44:26.592Z,9.52
2023-03-13T01:46:55.597Z,9.49
2023-03-13T01:49:33.769Z,9.49
2023-03-13T01:52:09.543Z,9.49
2023-03-13T01:54:44.195Z,9.56
2023-03-13T01:57:27.864Z,9.62
2023-03-13T02:00:08.594Z,9.62
2023-03-13T02:02:41.871Z,9.55
2023-03-13T02:05:11.136Z,9.48
2023-03-13T02:08:01.993Z,9.47
2023-03-13T02:10:34.312Z,9.37
2023-03-13T02:13:03.897Z,9.26
2023-03-13T02:15:34.532Z,9.22
2023-03-13T02:18:03.480Z,9.30
2023-03-13T02:20:32.265Z,9.38
2023-03-13T02:23:08.291Z,9.42
2023-03-13T02:25:49.736Z,9.33
2023-03-13T02:28:20.980Z,9.33
2023-03-13T02:30:53.036Z,9.37
2023-03-13T02:33:27.124Z,9.45
2023-03-13T02:35:57.542Z,9.46
2023-03-13T02:38:30.354Z,9.36
2023-03-13T02:41:02.263Z,9.27
2023-03-13T02:43:34.390Z,9.27
2023-03-13T02:46:05.779Z,9.26
2023-03-13T02:48:41.593Z,9.20
2023-03-13T02:51:26.529Z,9.19
2023-03-13T02:53:59.665Z,9.20
2023-03-13T02:56:32.411Z,9.22
2023-03-13T02:59:01.265Z,9.17
2023-03-13T03:01:31.038Z,9.15
2023-03-13T03:03:59.893Z,9.22
2023-03-13T03:06:29.132Z,9.31
2023-03-13T03:08:58.156Z,9.37
2023-03-13T03:11:27.108Z,9.41
2023-03-13T03:13:56.574Z,9.45
2023-03-13T03:16:25.612Z,9.53
2023-03-13T03:18:54.585Z,9.56
2023-03-13T03:21:24.373Z,9.52
2023-03-13T03:23:53.859Z,9.41
2023-03-13T03:26:22.823Z,9.28
2023-03-13T03:28:51.928Z,9.20
2023-03-13T03:31:21.256Z,9.16
2023-03-13T03:33:50.825Z,9.11
2023-03-13T03:36:24.046Z,9.11
2023-03-13T03:38:54.573Z,9.10
2023-03-13T03:41:23.592Z,9.12
2023-03-13T03:43:52.798Z,9.12
2023-03-13T03:46:21.819Z,9.08
2023-03-13T03:48:50.858Z,9.00
2023-03-13T03:51:19.762Z,8.99
2023-03-13T03:53:48.882Z,9.02
2023-03-13T03:56:17.983Z,8.97
2023-03-13T03:58:47.143Z,8.88
2023-03-13T04:01:16.791Z,8.83
2023-03-13T04:03:45.744Z,8.85
2023-03-13T04:06:14.897Z,8.88
2023-03-13T04:08:43.709Z,8.86
2023-03-13T04:11:13.103Z,8.81
2023-03-13T04:13:42.215Z,8.84
2023-03-13T04:16:11.962Z,8.84
2023-03-13T04:18:41.340Z,8.75
2023-03-13T04:21:10.403Z,8.64
2023-03-13T04:23:38.906Z,8.61
2023-03-13T04:26:07.943Z,8.66
2023-03-13T04:28:36.863Z,8.70
2023-03-13T04:31:07.523Z,8.66
2023-03-13T04:33:37.384Z,8.67
2023-03-13T04:36:06.706Z,8.74
2023-03-13T04:38:35.606Z,8.81
2023-03-13T04:41:04.705Z,8.83
2023-03-13T04:43:33.501Z,8.82
2023-03-13T04:46:02.566Z,8.83
2023-03-13T04:48:31.416Z,8.90
2023-03-13T04:51:00.356Z,8.96
2023-03-13T04:53:29.263Z,8.94
2023-03-13T04:55:58.458Z,8.85
2023-03-13T04:58:27.702Z,8.82
2023-03-13T05:00:57.531Z,8.85
2023-03-13T05:03:27.088Z,8.80
2023-03-13T05:05:56.252Z,8.81
2023-03-13T05:08:25.338Z,8.78
2023-03-13T05:10:54.746Z,8.78
2023-03-13T05:13:24.086Z,8.74
2023-03-13T05:15:53.278Z,8.69
2023-03-13T05:18:22.522Z,8.64
2023-03-13T05:20:51.760Z,8.63
2023-03-13T05:23:20.844Z,8.64
2023-03-13T05:25:49.781Z,8.64
2023-03-13T05:28:18.361Z,8.63
2023-03-13T05:30:47.281Z,8.66
2023-03-13T05:33:16.663Z,8.72
2023-03-13T05:35:47.127Z,8.69
2023-03-13T05:38:16.234Z,8.63
2023-03-13T05:40:45.242Z,8.63
2023-03-13T05:43:14.640Z,8.71
2023-03-13T05:45:43.867Z,8.85
2023-03-13T05:48:12.999Z,8.96
2023-03-13T05:50:42.143Z,8.99
2023-03-13T05:53:11.181Z,9.00
2023-03-13T05:55:39.970Z,9.07
2023-03-13T05:58:10.479Z,9.20
2023-03-13T06:00:39.477Z,9.41
2023-03-13T06:03:08.490Z,9.89
2023-03-13T06:05:37.484Z,10.38
2023-03-13T06:08:07.771Z,10.76
2023-03-13T06:10:36.846Z,11.13
2023-03-13T06:13:19.001Z,11.62
2023-03-13T06:15:57.059Z,12.24
2023-03-13T06:18:27.573Z,12.75
2023-03-13T06:20:59.957Z,13.16
2023-03-13T06:23:29.896Z,13.53
2023-03-13T06:25:58.798Z,13.76
2023-03-13T06:28:28.911Z,14.15
2023-03-13T06:31:05.803Z,14.52
2023-03-13T06:33:35.344Z,15.07
2023-03-13T06:36:05.139Z,15.65
2023-03-13T06:38:34.267Z,15.82
2023-03-13T06:41:03.322Z,16.20
2023-03-13T06:43:32.631Z,16.78
2023-03-13T06:46:05.926Z,17.24
2023-03-13T06:48:35.492Z,17.81
2023-03-13T06:51:05.064Z,18.44
2023-03-13T06:53:34.440Z,18.66
2023-03-13T06:56:03.411Z,19.09
2023-03-13T06:58:33.123Z,19.65
2023-03-13T07:01:10.602Z,20.16
2023-03-13T07:03:44.174Z,20.54
2023-03-13T07:06:13.915Z,20.96
2023-03-13T07:08:44.337Z,21.50
2023-03-13T07:11:14.982Z,21.98
2023-03-13T07:13:44.221Z,22.57
2023-03-13T07:16:14.902Z,23.19
2023-03-13T07:18:45.369Z,23.91
2023-03-13T07:21:15.173Z,24.47
2023-03-13T07:23:44.628Z,24.89
2023-03-13T07:26:15.590Z,25.32
2023-03-13T07:28:44.449Z,25.66
2023-03-13T07:31:18.043Z,25.92
2023-03-13T07:33:47.744Z,26.18
2023-03-13T07:36:17.041Z,26.62
2023-03-13T07:38:50.794Z,26.95
2023-03-13T07:41:20.986Z,27.16
2023-03-13T07:43:50.671Z,27.47
2023-03-13T07:46:22.343Z,27.66
2023-03-13T07:48:53.372Z,27.67
2023-03-13T07:51:42.211Z,27.97
2023-03-13T07:54:12.172Z,28.28
2023-03-13T07:56:41.485Z,28.70
2023-03-13T07:59:11.604Z,28.99
2023-03-13T08:01:41.553Z,29.06
2023-03-13T08:04:14.639Z,28.98
2023-03-13T08:06:43.645Z,28.97
2023-03-13T08:09:13.374Z,29.37
2023-03-13T08:11:44.870Z,29.86
2023-03-13T08:14:13.536Z,30.43
2023-03-13T08:16:42.726Z,31.13
2023-03-13T08:19:12.022Z,31.59
2023-03-13T08:21:41.131Z,32.00
2023-03-13T08:24:13.347Z,32.34
2023-03-13T08:26:43.719Z,32.63
2023-03-13T08:29:15.322Z,32.44
2023-03-13T08:31:48.168Z,32.26
2023-03-13T08:34:19.066Z,32.08
2023-03-13T08:36:49.329Z,32.07
2023-03-13T08:39:20.808Z,32.27
2023-03-13T08:41:50.514Z,32.57
2023-03-13T08:44:21.685Z,32.55
2023-03-13T08:46:51.072Z,32.67
2023-03-13T08:49:20.589Z,32.79
2023-03-13T08:51:49.555Z,32.79
2023-03-13T08:54:18.664Z,32.64
2023-03-13T08:56:47.973Z,32.42
2023-03-13T08:59:17.103Z,32.15
2023-03-13T09:01:45.945Z,32.26
2023-03-13T09:04:15.828Z,32.34
2023-03-13T09:06:45.295Z,31.99
2023-03-13T09:09:14.875Z,32.03
2023-03-13T09:11:44.353Z,32.41
2023-03-13T09:14:13.471Z,32.97
2023-03-13T09:16:43.302Z,33.27
2023-03-13T09:19:13.439Z,33.84
2023-03-13T09:21:42.485Z,34.21
2023-03-13T09:24:11.919Z,34.40
2023-03-13T09:26:46.514Z,34.57
2023-03-13T09:29:21.076Z,34.74
2023-03-13T09:31:50.009Z,34.88
2023-03-13T09:34:19.148Z,34.78
2023-03-13T09:36:48.266Z,35.22
2023-03-13T09:39:17.509Z,35.82
2023-03-13T09:42:03.377Z,35.99
2023-03-13T09:45:00.550Z,36.20
2023-03-13T09:47:51.386Z,36.23
2023-03-13T09:50:32.424Z,36.36
2023-03-13T09:53:16.170Z,36.55
2023-03-13T09:55:47.875Z,36.80
2023-03-13T09:58:23.733Z,37.02
2023-03-13T10:00:59.127Z,36.93
2023-03-13T10:03:41.995Z,36.99
2023-03-13T10:06:19.250Z,37.07
2023-03-13T10:08:49.105Z,37.34
2023-03-13T10:11:24.777Z,37.61
2023-03-13T10:14:16.573Z,37.83
2023-03-13T10:17:04.279Z,37.65
2023-03-13T10:19:42.772Z,37.88
2023-03-13T10:22:26.750Z,38.30
2023-03-13T10:25:05.957Z,38.43
2023-03-13T10:27:51.095Z,38.32
2023-03-13T10:30:27.488Z,38.40
2023-03-13T10:33:13.259Z,38.47
2023-03-13T10:35:44.845Z,38.47
2023-03-13T10:38:19.896Z,38.31
2023-03-13T10:41:07.050Z,38.22
2023-03-13T10:43:36.686Z,38.38
2023-03-13T10:46:09.659Z,38.31
2023-03-13T10:48:40.590Z,38.20
2023-03-13T10:51:23.120Z,38.04
2023-03-13T10:53:53.009Z,37.92
2023-03-13T10:56:30.846Z,37.83
2023-03-13T10:59:02.283Z,37.71
2023-03-13T11:01:45.555Z,37.52
2023-03-13T11:04:35.613Z,37.40
2023-03-13T11:07:06.507Z,37.43
2023-03-13T11:09:36.002Z,37.23
2023-03-13T11:12:21.467Z,37.01
2023-03-13T11:14:59.164Z,36.79
2023-03-13T11:17:38.625Z,36.76
2023-03-13T11:20:27.288Z,36.87
2023-03-13T11:23:25.107Z,36.70
2023-03-13T11:26:16.183Z,36.73
2023-03-13T11:29:08.042Z,36.74
2023-03-13T11:31:42.629Z,36.63
2023-03-13T11:34:18.435Z,37.22
2023-03-13T11:36:54.174Z,37.28
2023-03-13T11:39:35.313Z,37.10
2023-03-13T11:42:17.936Z,37.00
2023-03-13T11:44:57.137Z,36.96
2023-03-13T11:47:44.194Z,37.08
2023-03-13T11:50:31.733Z,37.25
2023-03-13T11:53:14.199Z,37.27
2023-03-13T11:55:57.713Z,37.23
2023-03-13T11:58:38.658Z,37.41
2023-03-13T12:01:30.783Z,37.48
2023-03-13T12:04:40.135Z,37.59
2023-03-13T12:07:29.040Z,37.50
2023-03-13T12:10:05.202Z,37.52
2023-03-13T12:12:44.184Z,37.41
2023-03-13T12:15:20.100Z,37.32
2023-03-13T12:18:04.625Z,37.13
2023-03-13T12:20:46.043Z,37.10
2023-03-13T12:23:20.152Z,37.07
2023-03-13T12:26:14.159Z,36.90
2023-03-13T12:29:01.740Z,36.74
2023-03-13T12:31:43.089Z,36.75
2023-03-13T12:34:24.203Z,36.54
2023-03-13T12:37:27.255Z,36.59
2023-03-13T12:40:10.364Z,36.09
2023-03-13T12:42:49.094Z,36.23
2023-03-13T12:45:22.248Z,36.27
2023-03-13T12:47:51.074Z,36.21
2023-03-13T12:50:27.386Z,35.96
2023-03-13T12:53:20.789Z,34.97
2023-03-13T12:56:19.069Z,33.63
2023-03-13T12:58:49.864Z,32.19
2023-03-13T13:01:25.938Z,31.18
2023-03-13T13:04:13.227Z,30.06
2023-03-13T13:06:56.980Z,29.15
2023-03-13T13:09:29.200Z,28.42
2023-03-13T13:12:20.508Z,28.48
2023-03-13T13:14:49.822Z,30.08
2023-03-13T13:17:57.106Z,29.97
2023-03-13T13:20:53.886Z,29.01
2023-03-13T13:23:25.397Z,28.57
2023-03-13T13:25:57.653Z,28.77
2023-03-13T13:28:36.420Z,29.13
2023-03-13T13:31:46.906Z,29.31
2023-03-13T13:34:31.591Z,28.92
2023-03-13T13:37:25.503Z,28.62
2023-03-13T13:39:55.679Z,28.36
2023-03-13T13:42:59.761Z,28.31
2023-03-13T13:45:32.649Z,27.76
2023-03-13T13:48:20.932Z,27.44
2023-03-13T13:51:12.302Z,27.27
2023-03-13T13:53:45.902Z,27.60
2023-03-13T13:56:27.035Z,28.40
2023-03-13T13:59:27.469Z,29.12
2023-03-13T14:02:10.411Z,29.35
2023-03-13T14:05:07.670Z,29.18
2023-03-13T14:07:49.116Z,28.75
2023-03-13T14:10:34.541Z,28.48
2023-03-13T14:13:18.484Z,28.59
2023-03-13T14:15:50.755Z,29.09
2023-03-13T14:18:25.067Z,29.73
2023-03-13T14:21:04.261Z,30.34
2023-03-13T14:23:47.873Z,30.75
2023-03-13T14:26:22.255Z,30.94
2023-03-13T14:28:53.363Z,31.10
2023-03-13T14:31:28.082Z,30.82
2023-03-13T14:34:01.990Z,29.91
2023-03-13T14:36:45.879Z,28.94
2023-03-13T14:39:33.585Z,27.97
2023-03-13T14:42:21.335Z,27.08
2023-03-13T14:44:50.599Z,26.41
2023-03-13T14:47:24.355Z,26.08
2023-03-13T14:50:05.076Z,25.89
2023-03-13T14:52:35.317Z,25.56
2023-03-13T14:55:26.110Z,25.19
2023-03-13T14:57:59.221Z,24.78
2023-03-13T15:00:46.384Z,24.62
2023-03-13T15:03:22.612Z,24.26
2023-03-13T15:06:11.192Z,24.07
2023-03-13T15:08:44.838Z,23.82
2023-03-13T15:11:43.373Z,23.56
2023-03-13T15:14:36.729Z,23.22
2023-03-13T15:17:14.977Z,22.99
2023-03-13T15:19:48.534Z,22.76
2023-03-13T15:22:19.547Z,22.56
2023-03-13T15:25:04.939Z,22.47
2023-03-13T15:27:35.488Z,22.36
2023-03-13T15:30:05.312Z,22.56
2023-03-13T15:32:40.333Z,22.93
2023-03-13T15:35:33.447Z,23.36
2023-03-13T15:38:03.584Z,23.98
2023-03-13T15:40:33.696Z,24.40
2023-03-13T15:43:03.567Z,24.59
2023-03-13T15:45:34.471Z,24.24
2023-03-13T15:48:07.020Z,23.86
2023-03-13T15:50:37.909Z,23.57
2023-03-13T15:53:19.674Z,23.24
2023-03-13T15:55:50.706Z,22.71
2023-03-13T15:58:20.671Z,22.42
2023-03-13T16:00:50.941Z,22.14
2023-03-13T16:03:26.332Z,21.76
2023-03-13T16:05:57.975Z,21.68
2023-03-13T16:08:36.215Z,21.69
2023-03-13T16:11:06.588Z,21.58
2023-03-13T16:13:36.662Z,21.36
2023-03-13T16:16:37.131Z,21.00
2023-03-13T16:19:08.088Z,20.76
2023-03-13T16:21:41.057Z,20.72
2023-03-13T16:24:11.479Z,20.47
2023-03-13T16:26:41.333Z,20.27
2023-03-13T16:29:15.876Z,20.14
2023-03-13T16:31:45.757Z,20.03
2023-03-13T16:34:15.274Z,19.83
2023-03-13T16:36:44.657Z,19.58
2023-03-13T16:39:17.112Z,19.40
2023-03-13T16:41:46.737Z,19.24
2023-03-13T16:44:15.560Z,19.13
2023-03-13T16:46:59.257Z,18.99
2023-03-13T16:49:33.825Z,18.79
2023-03-13T16:52:03.466Z,18.72
2023-03-13T16:54:35.228Z,18.60
2023-03-13T16:57:05.124Z,18.54
2023-03-13T16:59:34.763Z,18.47
2023-03-13T17:02:04.508Z,18.41
2023-03-13T17:04:34.552Z,18.39
2023-03-13T17:07:19.263Z,18.33
2023-03-13T17:09:49.112Z,18.16
2023-03-13T17:12:20.332Z,18.07
2023-03-13T17:14:49.518Z,18.03
2023-03-13T17:17:23.076Z,17.96
2023-03-13T17:19:52.681Z,17.90
2023-03-13T17:22:22.270Z,17.87
2023-03-13T17:24:51.736Z,17.83
2023-03-13T17:27:21.298Z,17.75
2023-03-13T17:29:50.447Z,17.68
2023-03-13T17:32:20.733Z,17.59
2023-03-13T17:34:49.785Z,17.49
2023-03-13T17:37:23.584Z,17.41
2023-03-13T17:39:52.979Z,17.32
2023-03-13T17:42:22.549Z,17.24
2023-03-13T17:44:53.130Z,17.19
2023-03-13T17:47:25.031Z,17.10
2023-03-13T17:49:54.936Z,17.04
2023-03-13T17:52:24.337Z,16.98
2023-03-13T17:54:54.580Z,16.93
2023-03-13T17:57:23.796Z,16.93
2023-03-13T17:59:53.565Z,16.90
2023-03-13T18:02:23.709Z,16.81
2023-03-13T18:04:54.098Z,16.77
2023-03-13T18:07:29.482Z,16.74
2023-03-13T18:09:59.911Z,16.73
2023-03-13T18:12:30.049Z,16.70
2023-03-13T18:14:59.234Z,16.66
2023-03-13T18:17:29.518Z,16.62
2023-03-13T18:19:58.593Z,16.59
2023-03-13T18:22:27.923Z,16.56
2023-03-13T18:24:57.217Z,16.53
2023-03-13T18:27:26.952Z,16.49
2023-03-13T18:29:56.397Z,16.44
2023-03-13T18:32:26.004Z,16.38
2023-03-13T18:34:56.069Z,16.29
2023-03-13T18:37:31.534Z,16.22
2023-03-13T18:40:01.723Z,16.17
2023-03-13T18:42:31.574Z,16.16
2023-03-13T18:45:03.666Z,16.14
2023-03-13T18:47:33.159Z,16.11
2023-03-13T18:50:02.959Z,16.12
2023-03-13T18:52:32.509Z,16.06
2023-03-13T18:55:02.389Z,15.95
2023-03-13T18:57:32.267Z,15.88
2023-03-13T19:00:03.055Z,15.83
2023-03-13T19:02:33.109Z,15.79
2023-03-13T19:05:02.570Z,15.76
2023-03-13T19:07:33.284Z,15.74
2023-03-13T19:10:04.083Z,15.70
2023-03-13T19:12:33.125Z,15.68
2023-03-13T19:15:02.593Z,15.69
2023-03-13T19:17:32.928Z,15.66
2023-03-13T19:20:02.943Z,15.62
2023-03-13T19:22:31.909Z,15.56
2023-03-13T19:25:03.834Z,15.55
2023-03-13T19:27:33.665Z,15.56
2023-03-13T19:30:02.708Z,15.55
2023-03-13T19:32:31.946Z,15.49
2023-03-13T19:35:01.789Z,15.44
2023-03-13T19:37:30.663Z,15.41
2023-03-13T19:40:01.543Z,15.37
2023-03-13T19:42:32.325Z,15.30
2023-03-13T19:45:02.104Z,15.27
2023-03-13T19:47:31.643Z,15.25
2023-03-13T19:50:01.699Z,15.25
2023-03-13T19:52:31.892Z,15.22
2023-03-13T19:55:05.366Z,15.23
2023-03-13T19:57:35.363Z,15.19
2023-03-13T20:00:06.697Z,15.17
2023-03-13T20:02:36.339Z,15.14
2023-03-13T20:05:07.470Z,15.11
2023-03-13T20:07:39.619Z,15.08
2023-03-13T20:10:09.909Z,15.06
2023-03-13T20:12:41.796Z,15.01
2023-03-13T20:15:13.844Z,14.99
2023-03-13T20:17:44.707Z,14.96
2023-03-13T20:20:15.781Z,14.93
2023-03-13T20:22:47.880Z,14.90
2023-03-13T20:25:17.908Z,14.85
2023-03-13T20:27:47.258Z,14.82
2023-03-13T20:30:19.776Z,14.79
2023-03-13T20:32:59.178Z,14.74
2023-03-13T20:35:29.633Z,14.68
2023-03-13T20:38:02.150Z,14.72
2023-03-13T20:40:33.686Z,14.77
2023-03-13T20:43:05.023Z,14.78
2023-03-13T20:45:36.757Z,14.80
2023-03-13T20:48:07.659Z,14.81
2023-03-13T20:50:37.438Z,14.80
2023-03-13T20:53:09.758Z,14.78
2023-03-13T20:55:42.632Z,14.73
2023-03-13T20:58:13.641Z,14.66
2023-03-13T21:00:45.096Z,14.66
2023-03-13T21:03:15.993Z,14.71
2023-03-13T21:05:46.497Z,14.73
2023-03-13T21:08:16.654Z,14.70
2023-03-13T21:10:46.729Z,14.66
2023-03-13T21:13:16.529Z,14.58
2023-03-13T21:15:46.756Z,14.49
2023-03-13T21:18:16.197Z,14.45
2023-03-13T21:20:46.809Z,14.40
2023-03-13T21:23:17.385Z,14.34
2023-03-13T21:25:54.343Z,14.36
2023-03-13T21:28:23.698Z,14.39
2023-03-13T21:30:54.485Z,14.40
2023-03-13T21:33:25.074Z,14.35
2023-03-13T21:35:54.842Z,14.31
2023-03-13T21:38:23.919Z,14.24
2023-03-13T21:40:54.100Z,14.23
2023-03-13T21:43:24.311Z,14.23
2023-03-13T21:45:53.588Z,14.21
2023-03-13T21:48:22.856Z,14.17
2023-03-13T21:50:53.530Z,14.15
2023-03-13T21:53:22.401Z,14.13
2023-03-13T21:55:53.357Z,14.09
2023-03-13T21:58:22.445Z,14.09
2023-03-13T22:00:55.634Z,14.13
2023-03-13T22:03:27.147Z,14.14
2023-03-13T22:05:56.636Z,14.12
2023-03-13T22:08:25.835Z,14.08
2023-03-13T22:10:55.626Z,14.00
2023-03-13T22:13:24.816Z,13.95
2023-03-13T22:15:54.204Z,13.94
2023-03-13T22:18:24.143Z,13.91
2023-03-13T22:20:53.338Z,13.89
2023-03-13T22:23:22.211Z,13.92
2023-03-13T22:25:51.905Z,13.93
2023-03-13T22:28:21.032Z,13.89
2023-03-13T22:30:50.543Z,13.86
2023-03-13T22:33:19.668Z,13.86
2023-03-13T22:35:54.974Z,13.78
2023-03-13T22:38:23.898Z,13.70
2023-03-13T22:41:07.928Z,13.67
2023-03-13T22:43:37.234Z,13.61
2023-03-13T22:46:07.596Z,13.59
2023-03-13T22:48:37.415Z,13.50
2023-03-13T22:51:10.323Z,13.40
2023-03-13T22:53:41.151Z,13.28
2023-03-13T22:56:12.595Z,13.21
2023-03-13T22:58:42.674Z,13.17
2023-03-13T23:01:17.368Z,13.12
2023-03-13T23:03:46.878Z,13.09
2023-03-13T23:06:18.275Z,13.03
2023-03-13T23:08:47.415Z,12.94
2023-03-13T23:11:17.153Z,12.87
2023-03-13T23:13:46.149Z,12.81
2023-03-13T23:16:15.592Z,12.82
2023-03-13T23:18:45.583Z,12.84
2023-03-13T23:21:16.931Z,12.82
2023-03-13T23:23:47.621Z,12.90
2023-03-13T23:26:17.216Z,12.97
2023-03-13T23:28:46.773Z,13.00
2023-03-13T23:31:21.935Z,13.07
2023-03-13T23:33:51.398Z,13.08
2023-03-13T23:36:20.772Z,13.06
2023-03-13T23:38:51.881Z,13.01
2023-03-13T23:41:22.129Z,12.95
2023-03-13T23:43:51.008Z,12.94
2023-03-13T23:46:26.790Z,12.94
2023-03-13T23:48:57.868Z,12.92
2023-03-13T23:51:27.835Z,12.90
2023-03-13T23:53:56.944Z,12.88
2023-03-13T23:56:26.269Z,12.91
2023-03-13T23:58:55.480Z,12.95
